Overview Statistics Trail Chart Weather Telemetry Raw packets
 

This is the latest recevied weather packets stored in our database for station/object KG5MMT-12. If no packets are shown the sender has not sent any weather packets the latest 10 day(s).

<< 27 28 29 30 31 32 33 >>
Time Temp. Humidity Pressure Rain* Wind** Luminosity Snow
1788505142 21.11° C 52% 0 hPa 0 mm - - -
1788504842 21.11° C 50% 0 hPa 0 mm - - -
1788504542 21.67° C 47% 0 hPa 0 mm - - -
1788504242 22.22° C 45% 0 hPa 0 mm - - -
1788503942 22.78° C 42% 0 hPa 0 mm - - -
1788503642 22.78° C 41% 0 hPa 0 mm - - -
1788503342 22.78° C 40% 0 hPa 0 mm - - -
1788503042 22.78° C 40% 0 hPa 0 mm - - -
1788502742 22.22° C 40% 0 hPa 0 mm - - -
1788502442 22.22° C 42% 0 hPa 0 mm - - -
1788502142 22.22° C 43% 0 hPa 0 mm - - -
1788501842 21.67° C 45% 0 hPa 0 mm - - -
1788501542 21.67° C 46% 0 hPa 0 mm - - -
1788501242 21.11° C 49% 0 hPa 0 mm - - -
1788500942 20.56° C 50% 0 hPa 0 mm - - -
1788500642 20° C 53% 0 hPa 0 mm - - -
1788500342 18.89° C 61% 0 hPa 0 mm - - -
1788500042 18.89° C 61% 0 hPa 0 mm - - -
1788499742 18.33° C 64% 0 hPa 0 mm - - -
1788499442 18.33° C 62% 0 hPa 0 mm - - -
1788499142 18.33° C 65% 0 hPa 0 mm - - -
1788498842 18.89° C 64% 0 hPa 0 mm - - -
1788498542 18.89° C 64% 0 hPa 0 mm - - -
1788498242 18.89° C 64% 0 hPa 0 mm - - -
1788497942 18.89° C 63% 0 hPa 0 mm - - -

* Rain latest hour (hover to see other rain measurements)
** Current wind speed in m/s (hover to see current wind gust speed)